sensor_id;sensor_type;location;lat;lon;timestamp;P1;durP1;ratioP1;P2;durP2;ratioP2
73672;SDS011;61972;19.480;-99.240;2023-04-03T00:01:17;14.10;;;10.75;;
73672;SDS011;61972;19.480;-99.240;2023-04-03T00:03:44;14.73;;;10.77;;
73672;SDS011;61972;19.480;-99.240;2023-04-03T00:06:10;14.80;;;10.48;;
73672;SDS011;61972;19.480;-99.240;2023-04-03T00:08:37;15.38;;;10.60;;
73672;SDS011;61972;19.480;-99.240;2023-04-03T00:11:04;11.97;;;10.37;;
73672;SDS011;61972;19.480;-99.240;2023-04-03T00:13:31;13.93;;;10.43;;
73672;SDS011;61972;19.480;-99.240;2023-04-03T00:15:57;12.52;;;10.32;;
73672;SDS011;61972;19.480;-99.240;2023-04-03T00:18:27;13.45;;;10.40;;
73672;SDS011;61972;19.480;-99.240;2023-04-03T00:21:03;12.40;;;10.45;;
73672;SDS011;61972;19.480;-99.240;2023-04-03T00:23:29;15.37;;;9.77;;
73672;SDS011;61972;19.480;-99.240;2023-04-03T00:25:56;14.05;;;10.45;;
73672;SDS011;61972;19.480;-99.240;2023-04-03T00:28:22;14.88;;;10.85;;
73672;SDS011;61972;19.480;-99.240;2023-04-03T00:31:00;13.77;;;10.10;;
73672;SDS011;61972;19.480;-99.240;2023-04-03T00:33:32;16.98;;;10.65;;
73672;SDS011;61972;19.480;-99.240;2023-04-03T00:39:04;15.68;;;10.40;;
73672;SDS011;61972;19.480;-99.240;2023-04-03T00:41:34;13.75;;;10.32;;
73672;SDS011;61972;19.480;-99.240;2023-04-03T00:47:22;14.25;;;10.45;;
73672;SDS011;61972;19.480;-99.240;2023-04-03T00:49:50;17.60;;;10.27;;
73672;SDS011;61972;19.480;-99.240;2023-04-03T00:52:17;13.35;;;9.95;;
73672;SDS011;61972;19.480;-99.240;2023-04-03T00:54:47;13.68;;;10.93;;
73672;SDS011;61972;19.480;-99.240;2023-04-03T00:57:15;15.80;;;10.98;;
73672;SDS011;61972;19.480;-99.240;2023-04-03T00:59:47;11.93;;;10.00;;
73672;SDS011;61972;19.480;-99.240;2023-04-03T01:02:17;12.43;;;10.43;;
73672;SDS011;61972;19.480;-99.240;2023-04-03T01:04:43;14.30;;;10.23;;
73672;SDS011;61972;19.480;-99.240;2023-04-03T01:07:30;13.25;;;10.48;;
73672;SDS011;61972;19.480;-99.240;2023-04-03T01:10:00;12.35;;;10.50;;
73672;SDS011;61972;19.480;-99.240;2023-04-03T01:12:36;14.07;;;10.57;;
73672;SDS011;61972;19.480;-99.240;2023-04-03T01:15:23;17.90;;;10.67;;
73672;SDS011;61972;19.480;-99.240;2023-04-03T01:17:54;12.57;;;10.95;;
73672;SDS011;61972;19.480;-99.240;2023-04-03T01:23:06;18.15;;;11.02;;
73672;SDS011;61972;19.480;-99.240;2023-04-03T01:25:48;13.50;;;10.88;;
73672;SDS011;61972;19.480;-99.240;2023-04-03T01:28:24;13.63;;;9.73;;
73672;SDS011;61972;19.480;-99.240;2023-04-03T01:40:14;15.05;;;9.73;;
73672;SDS011;61972;19.480;-99.240;2023-04-03T01:43:07;13.80;;;9.67;;
73672;SDS011;61972;19.480;-99.240;2023-04-03T01:48:59;15.27;;;11.43;;
73672;SDS011;61972;19.480;-99.240;2023-04-03T01:51:26;14.98;;;10.73;;
73672;SDS011;61972;19.480;-99.240;2023-04-03T01:53:52;21.13;;;11.25;;
73672;SDS011;61972;19.480;-99.240;2023-04-03T01:56:18;17.63;;;10.63;;
73672;SDS011;61972;19.480;-99.240;2023-04-03T01:58:45;14.82;;;11.25;;
73672;SDS011;61972;19.480;-99.240;2023-04-03T02:01:11;16.13;;;10.68;;
73672;SDS011;61972;19.480;-99.240;2023-04-03T02:03:46;15.32;;;11.13;;
73672;SDS011;61972;19.480;-99.240;2023-04-03T02:06:24;15.10;;;10.70;;
73672;SDS011;61972;19.480;-99.240;2023-04-03T02:08:51;17.80;;;11.03;;
73672;SDS011;61972;19.480;-99.240;2023-04-03T02:26:33;18.40;;;12.00;;
73672;SDS011;61972;19.480;-99.240;2023-04-03T02:29:00;20.77;;;12.18;;
73672;SDS011;61972;19.480;-99.240;2023-04-03T02:31:26;17.77;;;11.25;;
73672;SDS011;61972;19.480;-99.240;2023-04-03T02:33:52;15.60;;;11.10;;
73672;SDS011;61972;19.480;-99.240;2023-04-03T02:36:18;15.70;;;11.53;;
73672;SDS011;61972;19.480;-99.240;2023-04-03T02:38:44;16.70;;;11.02;;
73672;SDS011;61972;19.480;-99.240;2023-04-03T02:41:11;18.20;;;11.60;;
73672;SDS011;61972;19.480;-99.240;2023-04-03T02:43:38;17.70;;;11.15;;
73672;SDS011;61972;19.480;-99.240;2023-04-03T02:46:04;15.85;;;11.07;;
73672;SDS011;61972;19.480;-99.240;2023-04-03T02:48:36;14.37;;;10.70;;
73672;SDS011;61972;19.480;-99.240;2023-04-03T02:51:05;17.08;;;11.55;;
73672;SDS011;61972;19.480;-99.240;2023-04-03T02:53:31;17.35;;;11.02;;
73672;SDS011;61972;19.480;-99.240;2023-04-03T02:59:50;16.42;;;10.50;;
73672;SDS011;61972;19.480;-99.240;2023-04-03T03:02:31;14.90;;;9.73;;
73672;SDS011;61972;19.480;-99.240;2023-04-03T03:05:04;13.68;;;9.35;;
73672;SDS011;61972;19.480;-99.240;2023-04-03T03:07:31;13.55;;;9.80;;
73672;SDS011;61972;19.480;-99.240;2023-04-03T03:09:57;13.80;;;9.50;;
73672;SDS011;61972;19.480;-99.240;2023-04-03T03:12:24;13.20;;;9.90;;
73672;SDS011;61972;19.480;-99.240;2023-04-03T03:14:53;13.80;;;9.27;;
73672;SDS011;61972;19.480;-99.240;2023-04-03T03:17:24;11.07;;;8.90;;
73672;SDS011;61972;19.480;-99.240;2023-04-03T03:19:54;12.88;;;9.30;;
73672;SDS011;61972;19.480;-99.240;2023-04-03T03:22:23;13.30;;;9.02;;
73672;SDS011;61972;19.480;-99.240;2023-04-03T03:24:52;10.35;;;9.07;;
73672;SDS011;61972;19.480;-99.240;2023-04-03T03:27:21;11.83;;;8.50;;
73672;SDS011;61972;19.480;-99.240;2023-04-03T03:30:05;12.57;;;9.13;;
73672;SDS011;61972;19.480;-99.240;2023-04-03T03:32:32;10.70;;;8.55;;
73672;SDS011;61972;19.480;-99.240;2023-04-03T03:34:58;11.18;;;8.65;;
73672;SDS011;61972;19.480;-99.240;2023-04-03T03:37:24;13.10;;;8.50;;
73672;SDS011;61972;19.480;-99.240;2023-04-03T03:39:50;11.30;;;8.07;;
73672;SDS011;61972;19.480;-99.240;2023-04-03T03:42:16;10.50;;;8.02;;
73672;SDS011;61972;19.480;-99.240;2023-04-03T03:44:42;13.80;;;8.25;;
73672;SDS011;61972;19.480;-99.240;2023-04-03T03:47:08;9.60;;;7.95;;
73672;SDS011;61972;19.480;-99.240;2023-04-03T03:49:36;10.30;;;8.18;;
73672;SDS011;61972;19.480;-99.240;2023-04-03T03:52:02;10.57;;;7.80;;
73672;SDS011;61972;19.480;-99.240;2023-04-03T03:57:21;13.50;;;8.60;;
73672;SDS011;61972;19.480;-99.240;2023-04-03T03:59:47;11.07;;;8.07;;
73672;SDS011;61972;19.480;-99.240;2023-04-03T04:02:22;11.55;;;8.02;;
73672;SDS011;61972;19.480;-99.240;2023-04-03T04:04:48;10.80;;;8.17;;
73672;SDS011;61972;19.480;-99.240;2023-04-03T04:07:15;10.98;;;7.95;;
73672;SDS011;61972;19.480;-99.240;2023-04-03T04:09:41;11.63;;;7.97;;
73672;SDS011;61972;19.480;-99.240;2023-04-03T04:12:07;11.95;;;8.35;;
73672;SDS011;61972;19.480;-99.240;2023-04-03T04:14:33;10.95;;;8.43;;
73672;SDS011;61972;19.480;-99.240;2023-04-03T04:25:12;13.40;;;7.72;;
73672;SDS011;61972;19.480;-99.240;2023-04-03T04:34:24;10.77;;;7.15;;
73672;SDS011;61972;19.480;-99.240;2023-04-03T04:36:50;10.27;;;7.57;;
73672;SDS011;61972;19.480;-99.240;2023-04-03T04:39:16;9.35;;;7.25;;
73672;SDS011;61972;19.480;-99.240;2023-04-03T04:41:42;11.23;;;8.00;;
73672;SDS011;61972;19.480;-99.240;2023-04-03T04:44:08;11.50;;;7.27;;
73672;SDS011;61972;19.480;-99.240;2023-04-03T04:46:36;9.77;;;7.45;;
73672;SDS011;61972;19.480;-99.240;2023-04-03T04:49:02;8.95;;;7.00;;
73672;SDS011;61972;19.480;-99.240;2023-04-03T04:51:28;9.68;;;7.40;;
73672;SDS011;61972;19.480;-99.240;2023-04-03T04:53:55;9.00;;;7.10;;
73672;SDS011;61972;19.480;-99.240;2023-04-03T04:59:28;9.55;;;7.30;;
73672;SDS011;61972;19.480;-99.240;2023-04-03T05:01:54;9.27;;;7.78;;
73672;SDS011;61972;19.480;-99.240;2023-04-03T05:04:23;9.23;;;7.68;;
73672;SDS011;61972;19.480;-99.240;2023-04-03T05:06:49;10.07;;;7.82;;
73672;SDS011;61972;19.480;-99.240;2023-04-03T05:09:16;10.40;;;7.67;;
73672;SDS011;61972;19.480;-99.240;2023-04-03T05:11:42;9.88;;;7.85;;
73672;SDS011;61972;19.480;-99.240;2023-04-03T05:14:08;11.88;;;8.32;;
73672;SDS011;61972;19.480;-99.240;2023-04-03T05:16:34;10.60;;;8.10;;
73672;SDS011;61972;19.480;-99.240;2023-04-03T05:19:00;10.48;;;7.75;;
73672;SDS011;61972;19.480;-99.240;2023-04-03T05:21:26;9.43;;;7.67;;
73672;SDS011;61972;19.480;-99.240;2023-04-03T05:23:57;9.75;;;7.68;;
73672;SDS011;61972;19.480;-99.240;2023-04-03T05:26:24;10.35;;;8.27;;
73672;SDS011;61972;19.480;-99.240;2023-04-03T05:28:51;8.73;;;7.57;;
73672;SDS011;61972;19.480;-99.240;2023-04-03T05:31:17;10.40;;;7.90;;
73672;SDS011;61972;19.480;-99.240;2023-04-03T05:33:44;9.30;;;7.50;;
73672;SDS011;61972;19.480;-99.240;2023-04-03T05:36:11;9.10;;;7.88;;
73672;SDS011;61972;19.480;-99.240;2023-04-03T05:38:38;10.05;;;7.47;;
73672;SDS011;61972;19.480;-99.240;2023-04-03T05:41:04;11.57;;;7.95;;
73672;SDS011;61972;19.480;-99.240;2023-04-03T05:43:31;8.73;;;7.10;;
73672;SDS011;61972;19.480;-99.240;2023-04-03T05:52:37;9.18;;;8.02;;
73672;SDS011;61972;19.480;-99.240;2023-04-03T05:55:06;9.43;;;7.65;;
73672;SDS011;61972;19.480;-99.240;2023-04-03T05:57:32;9.45;;;7.63;;
73672;SDS011;61972;19.480;-99.240;2023-04-03T05:59:59;8.50;;;7.47;;
73672;SDS011;61972;19.480;-99.240;2023-04-03T06:02:25;9.75;;;7.50;;
73672;SDS011;61972;19.480;-99.240;2023-04-03T06:04:52;9.25;;;7.40;;
73672;SDS011;61972;19.480;-99.240;2023-04-03T06:07:20;9.95;;;7.97;;
73672;SDS011;61972;19.480;-99.240;2023-04-03T06:09:48;9.20;;;7.82;;
73672;SDS011;61972;19.480;-99.240;2023-04-03T06:12:28;10.13;;;7.40;;
73672;SDS011;61972;19.480;-99.240;2023-04-03T06:14:55;9.65;;;7.53;;
73672;SDS011;61972;19.480;-99.240;2023-04-03T06:17:24;10.32;;;7.50;;
73672;SDS011;61972;19.480;-99.240;2023-04-03T06:19:52;9.10;;;7.63;;
73672;SDS011;61972;19.480;-99.240;2023-04-03T06:22:18;9.00;;;7.80;;
73672;SDS011;61972;19.480;-99.240;2023-04-03T06:24:45;9.80;;;7.33;;
73672;SDS011;61972;19.480;-99.240;2023-04-03T06:27:11;9.98;;;7.95;;
73672;SDS011;61972;19.480;-99.240;2023-04-03T06:29:37;8.52;;;7.63;;
73672;SDS011;61972;19.480;-99.240;2023-04-03T06:32:04;8.95;;;7.93;;
73672;SDS011;61972;19.480;-99.240;2023-04-03T06:34:30;9.40;;;8.13;;
73672;SDS011;61972;19.480;-99.240;2023-04-03T06:36:57;11.37;;;7.50;;
73672;SDS011;61972;19.480;-99.240;2023-04-03T06:39:23;11.10;;;7.75;;
73672;SDS011;61972;19.480;-99.240;2023-04-03T06:41:50;9.18;;;7.78;;
73672;SDS011;61972;19.480;-99.240;2023-04-03T06:44:16;9.77;;;7.82;;
73672;SDS011;61972;19.480;-99.240;2023-04-03T06:46:43;10.55;;;7.53;;
73672;SDS011;61972;19.480;-99.240;2023-04-03T06:49:10;10.97;;;7.73;;
73672;SDS011;61972;19.480;-99.240;2023-04-03T06:51:40;9.90;;;7.93;;
73672;SDS011;61972;19.480;-99.240;2023-04-03T06:54:06;11.05;;;8.43;;
73672;SDS011;61972;19.480;-99.240;2023-04-03T06:56:33;8.43;;;7.18;;
73672;SDS011;61972;19.480;-99.240;2023-04-03T06:59:00;9.60;;;8.05;;
73672;SDS011;61972;19.480;-99.240;2023-04-03T07:01:32;10.00;;;8.10;;
73672;SDS011;61972;19.480;-99.240;2023-04-03T07:03:58;9.60;;;7.80;;
73672;SDS011;61972;19.480;-99.240;2023-04-03T07:06:25;10.52;;;8.20;;
73672;SDS011;61972;19.480;-99.240;2023-04-03T07:08:54;10.18;;;8.52;;
73672;SDS011;61972;19.480;-99.240;2023-04-03T07:11:21;11.75;;;9.15;;
73672;SDS011;61972;19.480;-99.240;2023-04-03T07:13:47;10.30;;;8.67;;
73672;SDS011;61972;19.480;-99.240;2023-04-03T07:16:14;11.25;;;8.75;;
73672;SDS011;61972;19.480;-99.240;2023-04-03T07:18:40;12.20;;;9.38;;
73672;SDS011;61972;19.480;-99.240;2023-04-03T07:21:07;11.43;;;9.18;;
73672;SDS011;61972;19.480;-99.240;2023-04-03T07:23:33;11.10;;;9.75;;
73672;SDS011;61972;19.480;-99.240;2023-04-03T07:25:59;11.03;;;9.80;;
73672;SDS011;61972;19.480;-99.240;2023-04-03T07:28:26;10.88;;;9.68;;
73672;SDS011;61972;19.480;-99.240;2023-04-03T07:31:13;12.38;;;10.05;;
73672;SDS011;61972;19.480;-99.240;2023-04-03T07:33:39;11.40;;;9.98;;
73672;SDS011;61972;19.480;-99.240;2023-04-03T07:36:06;13.40;;;10.43;;
73672;SDS011;61972;19.480;-99.240;2023-04-03T07:38:33;16.00;;;10.83;;
73672;SDS011;61972;19.480;-99.240;2023-04-03T07:41:00;12.73;;;10.57;;
73672;SDS011;61972;19.480;-99.240;2023-04-03T07:43:27;14.48;;;11.75;;
73672;SDS011;61972;19.480;-99.240;2023-04-03T07:45:56;13.82;;;11.27;;
73672;SDS011;61972;19.480;-99.240;2023-04-03T07:48:23;14.10;;;11.38;;
73672;SDS011;61972;19.480;-99.240;2023-04-03T07:50:50;13.87;;;11.50;;
73672;SDS011;61972;19.480;-99.240;2023-04-03T07:53:17;13.63;;;10.93;;
73672;SDS011;61972;19.480;-99.240;2023-04-03T07:55:46;12.73;;;11.23;;
73672;SDS011;61972;19.480;-99.240;2023-04-03T07:58:14;13.60;;;11.38;;
73672;SDS011;61972;19.480;-99.240;2023-04-03T08:00:42;13.57;;;10.73;;
73672;SDS011;61972;19.480;-99.240;2023-04-03T08:03:09;13.90;;;10.13;;
73672;SDS011;61972;19.480;-99.240;2023-04-03T08:05:37;13.73;;;10.60;;
73672;SDS011;61972;19.480;-99.240;2023-04-03T08:08:07;13.27;;;10.60;;
73672;SDS011;61972;19.480;-99.240;2023-04-03T08:10:35;12.10;;;10.30;;
73672;SDS011;61972;19.480;-99.240;2023-04-03T08:13:05;15.55;;;10.70;;
73672;SDS011;61972;19.480;-99.240;2023-04-03T08:15:31;12.13;;;10.30;;
73672;SDS011;61972;19.480;-99.240;2023-04-03T08:17:58;15.43;;;10.40;;
73672;SDS011;61972;19.480;-99.240;2023-04-03T08:20:26;12.60;;;10.40;;
73672;SDS011;61972;19.480;-99.240;2023-04-03T08:22:53;11.68;;;10.15;;
73672;SDS011;61972;19.480;-99.240;2023-04-03T08:25:19;13.20;;;10.27;;
73672;SDS011;61972;19.480;-99.240;2023-04-03T08:27:45;11.63;;;10.30;;
73672;SDS011;61972;19.480;-99.240;2023-04-03T08:30:12;12.30;;;9.52;;
73672;SDS011;61972;19.480;-99.240;2023-04-03T08:32:38;12.45;;;9.98;;
73672;SDS011;61972;19.480;-99.240;2023-04-03T08:35:07;11.20;;;9.60;;
73672;SDS011;61972;19.480;-99.240;2023-04-03T08:37:36;11.00;;;9.82;;
73672;SDS011;61972;19.480;-99.240;2023-04-03T08:40:12;12.27;;;9.70;;
73672;SDS011;61972;19.480;-99.240;2023-04-03T08:45:36;11.32;;;9.82;;
73672;SDS011;61972;19.480;-99.240;2023-04-03T08:50:47;11.15;;;9.48;;
73672;SDS011;61972;19.480;-99.240;2023-04-03T08:53:19;13.00;;;9.20;;
73672;SDS011;61972;19.480;-99.240;2023-04-03T08:55:52;10.75;;;9.48;;
73672;SDS011;61972;19.480;-99.240;2023-04-03T08:58:22;12.05;;;10.27;;
73672;SDS011;61972;19.480;-99.240;2023-04-03T09:01:23;13.15;;;9.23;;
73672;SDS011;61972;19.480;-99.240;2023-04-03T09:04:13;12.00;;;8.93;;
73672;SDS011;61972;19.480;-99.240;2023-04-03T09:06:52;11.13;;;8.57;;
73672;SDS011;61972;19.480;-99.240;2023-04-03T09:09:39;10.73;;;8.60;;
73672;SDS011;61972;19.480;-99.240;2023-04-03T09:15:26;10.15;;;8.68;;
73672;SDS011;61972;19.480;-99.240;2023-04-03T09:23:42;9.50;;;8.13;;
73672;SDS011;61972;19.480;-99.240;2023-04-03T09:26:15;10.65;;;8.65;;
73672;SDS011;61972;19.480;-99.240;2023-04-03T09:28:46;10.73;;;8.35;;
73672;SDS011;61972;19.480;-99.240;2023-04-03T09:31:24;11.07;;;8.93;;
73672;SDS011;61972;19.480;-99.240;2023-04-03T09:33:54;10.23;;;8.50;;
73672;SDS011;61972;19.480;-99.240;2023-04-03T09:39:14;12.70;;;8.80;;
73672;SDS011;61972;19.480;-99.240;2023-04-03T09:41:44;9.88;;;8.30;;
73672;SDS011;61972;19.480;-99.240;2023-04-03T09:44:22;9.73;;;8.35;;
73672;SDS011;61972;19.480;-99.240;2023-04-03T09:46:50;9.93;;;7.97;;
73672;SDS011;61972;19.480;-99.240;2023-04-03T09:49:17;9.85;;;8.43;;
73672;SDS011;61972;19.480;-99.240;2023-04-03T09:51:45;10.57;;;8.40;;
73672;SDS011;61972;19.480;-99.240;2023-04-03T09:54:26;10.32;;;7.68;;
73672;SDS011;61972;19.480;-99.240;2023-04-03T09:56:55;10.77;;;8.80;;
73672;SDS011;61972;19.480;-99.240;2023-04-03T09:59:25;9.83;;;8.20;;
73672;SDS011;61972;19.480;-99.240;2023-04-03T10:01:59;11.18;;;8.80;;
73672;SDS011;61972;19.480;-99.240;2023-04-03T10:04:36;9.98;;;8.65;;
73672;SDS011;61972;19.480;-99.240;2023-04-03T10:07:04;10.38;;;8.65;;
73672;SDS011;61972;19.480;-99.240;2023-04-03T10:09:57;9.73;;;8.38;;
73672;SDS011;61972;19.480;-99.240;2023-04-03T10:12:29;9.87;;;7.83;;
73672;SDS011;61972;19.480;-99.240;2023-04-03T10:15:00;10.90;;;8.20;;
73672;SDS011;61972;19.480;-99.240;2023-04-03T10:23:15;11.07;;;8.40;;
73672;SDS011;61972;19.480;-99.240;2023-04-03T10:31:22;13.65;;;8.82;;
73672;SDS011;61972;19.480;-99.240;2023-04-03T10:33:56;10.35;;;8.40;;
73672;SDS011;61972;19.480;-99.240;2023-04-03T10:36:36;11.13;;;8.57;;
73672;SDS011;61972;19.480;-99.240;2023-04-03T10:44:49;10.02;;;8.80;;
73672;SDS011;61972;19.480;-99.240;2023-04-03T10:50:02;11.23;;;9.18;;
73672;SDS011;61972;19.480;-99.240;2023-04-03T10:57:39;13.73;;;9.82;;
73672;SDS011;61972;19.480;-99.240;2023-04-03T11:00:07;13.55;;;9.52;;
73672;SDS011;61972;19.480;-99.240;2023-04-03T11:03:00;12.68;;;9.80;;
73672;SDS011;61972;19.480;-99.240;2023-04-03T11:08:13;11.23;;;9.50;;
73672;SDS011;61972;19.480;-99.240;2023-04-03T11:10:51;13.18;;;9.88;;
73672;SDS011;61972;19.480;-99.240;2023-04-03T11:13:37;12.60;;;9.35;;
73672;SDS011;61972;19.480;-99.240;2023-04-03T11:16:09;12.77;;;9.60;;
73672;SDS011;61972;19.480;-99.240;2023-04-03T11:19:04;11.30;;;9.60;;
73672;SDS011;61972;19.480;-99.240;2023-04-03T11:22:13;14.57;;;10.10;;
73672;SDS011;61972;19.480;-99.240;2023-04-03T11:24:51;13.13;;;9.73;;
73672;SDS011;61972;19.480;-99.240;2023-04-03T11:30:19;14.30;;;9.68;;
73672;SDS011;61972;19.480;-99.240;2023-04-03T11:35:56;10.23;;;8.98;;
73672;SDS011;61972;19.480;-99.240;2023-04-03T11:38:30;10.77;;;9.18;;
73672;SDS011;61972;19.480;-99.240;2023-04-03T11:41:04;10.43;;;8.35;;
73672;SDS011;61972;19.480;-99.240;2023-04-03T11:43:32;9.93;;;8.63;;
73672;SDS011;61972;19.480;-99.240;2023-04-03T11:46:05;11.63;;;8.43;;
73672;SDS011;61972;19.480;-99.240;2023-04-03T11:53:42;11.98;;;8.68;;
73672;SDS011;61972;19.480;-99.240;2023-04-03T12:01:54;12.00;;;9.10;;
73672;SDS011;61972;19.480;-99.240;2023-04-03T12:04:24;10.88;;;8.23;;
73672;SDS011;61972;19.480;-99.240;2023-04-03T12:06:53;10.05;;;8.23;;
73672;SDS011;61972;19.480;-99.240;2023-04-03T12:09:31;10.88;;;8.63;;
73672;SDS011;61972;19.480;-99.240;2023-04-03T12:12:07;10.03;;;8.43;;
73672;SDS011;61972;19.480;-99.240;2023-04-03T12:15:19;11.20;;;8.40;;
73672;SDS011;61972;19.480;-99.240;2023-04-03T12:17:46;10.65;;;8.90;;
73672;SDS011;61972;19.480;-99.240;2023-04-03T12:23:32;10.77;;;8.63;;
73672;SDS011;61972;19.480;-99.240;2023-04-03T12:26:18;10.33;;;8.83;;
73672;SDS011;61972;19.480;-99.240;2023-04-03T12:28:50;11.05;;;8.82;;
73672;SDS011;61972;19.480;-99.240;2023-04-03T12:31:18;11.88;;;8.63;;
73672;SDS011;61972;19.480;-99.240;2023-04-03T12:39:17;11.33;;;8.30;;
73672;SDS011;61972;19.480;-99.240;2023-04-03T12:44:37;10.45;;;8.48;;
73672;SDS011;61972;19.480;-99.240;2023-04-03T12:47:20;10.93;;;8.63;;
73672;SDS011;61972;19.480;-99.240;2023-04-03T12:49:49;11.43;;;8.38;;
73672;SDS011;61972;19.480;-99.240;2023-04-03T12:52:22;14.17;;;8.90;;
73672;SDS011;61972;19.480;-99.240;2023-04-03T12:54:51;11.57;;;8.50;;
73672;SDS011;61972;19.480;-99.240;2023-04-03T12:57:19;10.80;;;8.60;;
73672;SDS011;61972;19.480;-99.240;2023-04-03T12:59:49;11.15;;;8.00;;
73672;SDS011;61972;19.480;-99.240;2023-04-03T13:02:20;12.82;;;8.18;;
73672;SDS011;61972;19.480;-99.240;2023-04-03T13:04:46;13.07;;;8.70;;
73672;SDS011;61972;19.480;-99.240;2023-04-03T13:07:21;11.13;;;8.60;;
73672;SDS011;61972;19.480;-99.240;2023-04-03T13:09:57;11.07;;;8.73;;
73672;SDS011;61972;19.480;-99.240;2023-04-03T13:12:29;12.93;;;9.18;;
73672;SDS011;61972;19.480;-99.240;2023-04-03T13:14:57;11.60;;;8.68;;
73672;SDS011;61972;19.480;-99.240;2023-04-03T13:17:25;10.97;;;8.53;;
73672;SDS011;61972;19.480;-99.240;2023-04-03T13:19:53;10.82;;;8.77;;
73672;SDS011;61972;19.480;-99.240;2023-04-03T13:22:24;12.32;;;8.88;;
73672;SDS011;61972;19.480;-99.240;2023-04-03T13:25:13;10.50;;;8.60;;
73672;SDS011;61972;19.480;-99.240;2023-04-03T13:27:40;10.90;;;8.73;;
73672;SDS011;61972;19.480;-99.240;2023-04-03T13:30:19;11.43;;;8.70;;
73672;SDS011;61972;19.480;-99.240;2023-04-03T13:32:56;12.43;;;9.32;;
73672;SDS011;61972;19.480;-99.240;2023-04-03T13:35:37;10.85;;;8.48;;
73672;SDS011;61972;19.480;-99.240;2023-04-03T13:40:57;11.73;;;8.50;;
73672;SDS011;61972;19.480;-99.240;2023-04-03T13:43:33;15.27;;;7.90;;
73672;SDS011;61972;19.480;-99.240;2023-04-03T13:48:39;11.55;;;8.68;;
73672;SDS011;61972;19.480;-99.240;2023-04-03T13:53:41;11.52;;;8.45;;
73672;SDS011;61972;19.480;-99.240;2023-04-03T13:58:53;12.43;;;8.50;;
73672;SDS011;61972;19.480;-99.240;2023-04-03T14:01:25;11.10;;;8.60;;
73672;SDS011;61972;19.480;-99.240;2023-04-03T14:03:59;10.68;;;8.05;;
73672;SDS011;61972;19.480;-99.240;2023-04-03T14:06:27;10.38;;;8.52;;
73672;SDS011;61972;19.480;-99.240;2023-04-03T14:08:54;14.37;;;8.30;;
73672;SDS011;61972;19.480;-99.240;2023-04-03T14:11:21;11.68;;;8.30;;
73672;SDS011;61972;19.480;-99.240;2023-04-03T14:13:50;14.30;;;8.75;;
73672;SDS011;61972;19.480;-99.240;2023-04-03T14:16:21;10.18;;;8.00;;
73672;SDS011;61972;19.480;-99.240;2023-04-03T14:18:49;11.15;;;8.32;;
73672;SDS011;61972;19.480;-99.240;2023-04-03T14:21:17;12.80;;;8.00;;
73672;SDS011;61972;19.480;-99.240;2023-04-03T14:23:44;11.85;;;8.07;;
73672;SDS011;61972;19.480;-99.240;2023-04-03T14:26:15;11.10;;;8.45;;
73672;SDS011;61972;19.480;-99.240;2023-04-03T14:28:44;10.43;;;7.55;;
73672;SDS011;61972;19.480;-99.240;2023-04-03T14:31:12;10.85;;;8.40;;
73672;SDS011;61972;19.480;-99.240;2023-04-03T14:33:40;11.47;;;7.70;;
73672;SDS011;61972;19.480;-99.240;2023-04-03T14:36:13;10.30;;;8.02;;
73672;SDS011;61972;19.480;-99.240;2023-04-03T14:38:41;10.05;;;7.93;;
73672;SDS011;61972;19.480;-99.240;2023-04-03T14:41:13;9.05;;;7.45;;
73672;SDS011;61972;19.480;-99.240;2023-04-03T14:43:40;10.00;;;7.60;;
73672;SDS011;61972;19.480;-99.240;2023-04-03T14:46:12;9.90;;;7.40;;
73672;SDS011;61972;19.480;-99.240;2023-04-03T14:48:41;10.38;;;8.05;;
73672;SDS011;61972;19.480;-99.240;2023-04-03T14:51:08;10.50;;;7.40;;
73672;SDS011;61972;19.480;-99.240;2023-04-03T14:53:36;11.80;;;7.60;;
73672;SDS011;61972;19.480;-99.240;2023-04-03T14:56:05;10.52;;;7.72;;
73672;SDS011;61972;19.480;-99.240;2023-04-03T14:58:44;10.13;;;7.83;;
73672;SDS011;61972;19.480;-99.240;2023-04-03T15:01:14;11.48;;;7.45;;
73672;SDS011;61972;19.480;-99.240;2023-04-03T15:03:40;9.95;;;7.50;;
73672;SDS011;61972;19.480;-99.240;2023-04-03T15:06:08;11.38;;;7.47;;
73672;SDS011;61972;19.480;-99.240;2023-04-03T15:08:38;9.45;;;7.35;;
73672;SDS011;61972;19.480;-99.240;2023-04-03T15:11:06;10.97;;;7.43;;
73672;SDS011;61972;19.480;-99.240;2023-04-03T15:13:32;10.20;;;7.47;;
73672;SDS011;61972;19.480;-99.240;2023-04-03T15:15:58;10.57;;;7.63;;
73672;SDS011;61972;19.480;-99.240;2023-04-03T15:18:26;9.07;;;7.30;;
73672;SDS011;61972;19.480;-99.240;2023-04-03T15:20:55;9.05;;;7.80;;
73672;SDS011;61972;19.480;-99.240;2023-04-03T15:23:21;9.37;;;7.23;;
73672;SDS011;61972;19.480;-99.240;2023-04-03T15:25:51;8.32;;;6.80;;
73672;SDS011;61972;19.480;-99.240;2023-04-03T15:28:22;8.32;;;7.05;;
73672;SDS011;61972;19.480;-99.240;2023-04-03T15:30:53;9.65;;;7.53;;
73672;SDS011;61972;19.480;-99.240;2023-04-03T15:33:19;10.10;;;7.53;;
73672;SDS011;61972;19.480;-99.240;2023-04-03T15:35:46;10.07;;;7.37;;
73672;SDS011;61972;19.480;-99.240;2023-04-03T15:38:12;9.95;;;7.03;;
73672;SDS011;61972;19.480;-99.240;2023-04-03T15:40:38;10.25;;;7.88;;
73672;SDS011;61972;19.480;-99.240;2023-04-03T15:43:05;11.13;;;7.55;;
73672;SDS011;61972;19.480;-99.240;2023-04-03T15:45:33;8.38;;;7.13;;
73672;SDS011;61972;19.480;-99.240;2023-04-03T15:48:01;9.40;;;6.77;;
73672;SDS011;61972;19.480;-99.240;2023-04-03T15:50:28;10.02;;;7.57;;
73672;SDS011;61972;19.480;-99.240;2023-04-03T15:52:55;9.43;;;7.00;;
73672;SDS011;61972;19.480;-99.240;2023-04-03T15:55:26;9.90;;;7.60;;
73672;SDS011;61972;19.480;-99.240;2023-04-03T15:57:54;11.10;;;7.55;;
73672;SDS011;61972;19.480;-99.240;2023-04-03T16:00:21;8.33;;;6.37;;
73672;SDS011;61972;19.480;-99.240;2023-04-03T16:02:48;8.63;;;6.70;;
73672;SDS011;61972;19.480;-99.240;2023-04-03T16:05:21;9.45;;;6.97;;
73672;SDS011;61972;19.480;-99.240;2023-04-03T16:07:47;9.05;;;6.90;;
73672;SDS011;61972;19.480;-99.240;2023-04-03T16:10:15;11.30;;;7.95;;
73672;SDS011;61972;19.480;-99.240;2023-04-03T16:12:47;9.27;;;6.67;;
73672;SDS011;61972;19.480;-99.240;2023-04-03T16:15:13;10.70;;;7.13;;
73672;SDS011;61972;19.480;-99.240;2023-04-03T16:17:40;10.88;;;8.07;;
73672;SDS011;61972;19.480;-99.240;2023-04-03T16:20:09;8.85;;;6.85;;
73672;SDS011;61972;19.480;-99.240;2023-04-03T16:22:37;8.93;;;6.75;;
73672;SDS011;61972;19.480;-99.240;2023-04-03T16:25:04;9.40;;;7.57;;
73672;SDS011;61972;19.480;-99.240;2023-04-03T16:27:32;8.35;;;6.88;;
73672;SDS011;61972;19.480;-99.240;2023-04-03T16:29:58;9.05;;;6.75;;
73672;SDS011;61972;19.480;-99.240;2023-04-03T16:32:25;8.60;;;6.82;;
73672;SDS011;61972;19.480;-99.240;2023-04-03T16:34:54;8.45;;;6.60;;
73672;SDS011;61972;19.480;-99.240;2023-04-03T16:37:21;9.30;;;7.40;;
73672;SDS011;61972;19.480;-99.240;2023-04-03T16:39:47;7.93;;;6.30;;
73672;SDS011;61972;19.480;-99.240;2023-04-03T16:42:13;8.52;;;7.07;;
73672;SDS011;61972;19.480;-99.240;2023-04-03T16:44:40;8.68;;;6.65;;
73672;SDS011;61972;19.480;-99.240;2023-04-03T16:47:06;10.18;;;6.80;;
73672;SDS011;61972;19.480;-99.240;2023-04-03T16:49:33;8.50;;;6.30;;
73672;SDS011;61972;19.480;-99.240;2023-04-03T16:52:01;8.43;;;6.47;;
73672;SDS011;61972;19.480;-99.240;2023-04-03T16:54:29;8.52;;;6.93;;
73672;SDS011;61972;19.480;-99.240;2023-04-03T16:56:56;9.45;;;6.97;;